Time;durP1;ratioP1;P1;durP2;ratioP2;P2;SDS_P1;SDS_P2;PMS_P1;PMS_P2;Temp;Humidity;BMP_temperature;BMP_pressure;BME280_temperature;BME280_humidity;BME280_pressure;Samples;Min_cycle;Max_cycle;Signal;HPM_P1;HPM_P2
2023/04/19 00:02:15;;;;;;;23.27;17.25;;;;;;;12.46;69.25;101457.34;5072027;28;20411;-62
2023/04/19 00:04:46;;;;;;;23.30;17.48;;;;;;;12.32;69.76;101455.75;5074805;28;20052;-63
2023/04/19 00:07:13;;;;;;;22.70;17.23;;;;;;;12.47;69.54;101455.44;5055448;28;20052;-63
2023/04/19 00:09:41;;;;;;;23.40;16.65;;;;;;;12.62;68.99;101463.41;5074098;28;20056;-63
2023/04/19 00:12:08;;;;;;;24.70;17.02;;;;;;;12.40;69.29;101457.78;5073435;28;20071;-63
2023/04/19 00:14:35;;;;;;;23.23;16.52;;;;;;;12.41;69.53;101456.66;5074135;28;20056;-63
2023/04/19 00:17:02;;;;;;;22.73;17.08;;;;;;;12.28;70.13;101460.25;5077473;28;20535;-62
2023/04/19 00:19:30;;;;;;;22.88;16.63;;;;;;;12.42;69.68;101470.19;5076906;28;20052;-63
2023/04/19 00:21:57;;;;;;;22.48;16.63;;;;;;;12.38;69.70;101460.03;5077201;28;20542;-64
2023/04/19 00:24:25;;;;;;;21.63;15.82;;;;;;;12.43;69.73;101463.50;5078488;28;20053;-65
2023/04/19 00:26:52;;;;;;;22.13;16.38;;;;;;;12.49;69.32;101458.69;5077148;28;20057;-63
2023/04/19 00:29:20;;;;;;;20.45;15.35;;;;;;;12.44;69.39;101456.88;5077015;28;20048;-64
2023/04/19 00:31:48;;;;;;;20.13;16.20;;;;;;;12.31;70.10;101454.09;5077085;28;20052;-64
2023/04/19 00:34:15;;;;;;;21.77;16.45;;;;;;;12.40;69.86;101458.59;5077105;28;20048;-64
2023/04/19 00:36:43;;;;;;;23.00;17.38;;;;;;;12.39;70.06;101450.63;5071574;28;20041;-64
2023/04/19 00:39:12;;;;;;;17.83;14.02;;;;;;;12.38;69.41;101452.56;5075992;28;20044;-66
2023/04/19 00:41:39;;;;;;;20.80;14.45;;;;;;;12.37;69.35;101444.59;5074937;28;20055;-66
2023/04/19 00:44:07;;;;;;;18.40;14.98;;;;;;;12.25;69.83;101460.84;5077719;28;20056;-62
2023/04/19 00:46:36;;;;;;;18.48;13.45;;;;;;;12.40;68.85;101449.50;5041396;28;20147;-64
2023/04/19 00:49:04;;;;;;;16.65;11.90;;;;;;;12.24;68.77;101443.47;5076518;28;20056;-64
2023/04/19 00:51:32;;;;;;;15.07;11.65;;;;;;;12.33;68.43;101451.84;5075032;28;20381;-64
2023/04/19 00:54:01;;;;;;;14.70;11.02;;;;;;;12.30;68.47;101447.78;5075642;28;20056;-65
2023/04/19 00:56:29;;;;;;;14.33;11.27;;;;;;;12.37;68.01;101453.69;5073180;28;20056;-64
2023/04/19 00:58:57;;;;;;;14.77;10.93;;;;;;;12.61;67.61;101452.63;5060142;28;20060;-65
2023/04/19 01:01:25;;;;;;;18.20;12.35;;;;;;;12.57;67.21;101451.66;5073785;28;20052;-64
2023/04/19 01:03:52;;;;;;;16.90;11.57;;;;;;;12.54;67.43;101450.31;5077672;28;20052;-65
2023/04/19 01:06:20;;;;;;;17.08;11.90;;;;;;;12.44;67.86;101450.53;5057001;28;20048;-65
2023/04/19 01:08:48;;;;;;;18.15;11.45;;;;;;;12.50;67.23;101446.50;5076086;28;20064;-65
2023/04/19 01:11:15;;;;;;;15.60;11.45;;;;;;;12.37;67.98;101453.69;5074930;28;20045;-64
2023/04/19 01:13:44;;;;;;;17.77;11.98;;;;;;;12.50;67.64;101446.50;5075998;28;20061;-64
2023/04/19 01:16:11;;;;;;;14.80;11.25;;;;;;;12.28;68.22;101440.91;5074546;28;20179;-62
2023/04/19 01:18:39;;;;;;;16.50;11.27;;;;;;;12.39;68.02;101442.34;5075479;28;20063;-63
2023/04/19 01:21:07;;;;;;;15.60;11.48;;;;;;;12.38;67.64;101447.03;5056305;28;20052;-64
2023/04/19 01:23:37;;;;;;;17.95;11.77;;;;;;;12.39;67.76;101443.16;5059598;28;20055;-64
2023/04/19 01:26:05;;;;;;;15.32;11.45;;;;;;;12.35;67.64;101444.06;5075969;28;20053;-64
2023/04/19 01:28:32;;;;;;;15.93;11.30;;;;;;;12.30;68.17;101439.47;5075369;28;20491;-64
2023/04/19 01:31:00;;;;;;;15.88;11.85;;;;;;;12.35;67.95;101441.31;5047687;28;20044;-64
2023/04/19 01:33:27;;;;;;;17.88;11.90;;;;;;;12.14;68.36;101451.13;5071096;28;20060;-63
2023/04/19 01:35:54;;;;;;;15.05;11.07;;;;;;;12.01;69.15;101443.66;5074187;28;20071;-62
2023/04/19 01:38:22;;;;;;;14.60;11.13;;;;;;;12.03;69.07;101438.66;5058557;28;20048;-62
2023/04/19 01:40:49;;;;;;;17.60;11.20;;;;;;;11.99;69.38;101445.91;5075545;28;20060;-62
2023/04/19 01:43:17;;;;;;;13.35;10.63;;;;;;;11.98;69.19;101439.56;5076119;28;20052;-62
2023/04/19 01:45:45;;;;;;;16.25;11.45;;;;;;;11.85;69.63;101434.84;5074247;28;20056;-65
2023/04/19 01:48:12;;;;;;;14.38;10.93;;;;;;;11.86;69.66;101439.25;5074918;28;20048;-64
2023/04/19 01:50:39;;;;;;;17.05;10.98;;;;;;;11.92;69.51;101439.97;5060251;28;20056;-64
2023/04/19 01:53:07;;;;;;;14.77;10.90;;;;;;;11.93;69.40;101436.06;5076978;28;20566;-63
2023/04/19 01:55:34;;;;;;;15.65;11.20;;;;;;;11.87;69.93;101437.31;5058241;28;20049;-65
2023/04/19 01:58:01;;;;;;;16.75;11.30;;;;;;;11.95;69.80;101433.81;5058137;28;20068;-63
2023/04/19 02:00:29;;;;;;;15.40;11.15;;;;;;;12.24;68.87;101437.09;5074543;28;20885;-62
2023/04/19 02:02:56;;;;;;;14.35;11.27;;;;;;;11.94;69.46;101434.97;5074720;28;20151;-62
2023/04/19 02:05:24;;;;;;;15.07;10.70;;;;;;;11.83;69.80;101439.03;5073476;28;20056;-63
2023/04/19 02:07:53;;;;;;;15.38;11.20;;;;;;;11.87;69.98;101437.31;5070697;28;20060;-63
2023/04/19 02:10:20;;;;;;;15.77;10.48;;;;;;;11.86;69.62;101435.66;5075126;28;20446;-64
2023/04/19 02:12:47;;;;;;;17.80;11.55;;;;;;;11.86;70.10;101439.25;5057856;28;20926;-63
2023/04/19 02:15:15;;;;;;;15.05;10.75;;;;;;;11.86;69.49;101428.19;5074769;28;20055;-63
2023/04/19 02:17:42;;;;;;;15.02;11.43;;;;;;;11.75;69.82;101432.25;5075219;28;20075;-63
2023/04/19 02:20:09;;;;;;;15.02;10.55;;;;;;;11.76;69.98;101427.56;5075146;28;20044;-63
2023/04/19 02:22:37;;;;;;;14.70;10.60;;;;;;;11.90;69.71;101422.88;5054122;28;20049;-62
2023/04/19 02:25:05;;;;;;;15.18;10.80;;;;;;;11.82;69.38;101434.66;5066472;28;20053;-62
2023/04/19 02:27:33;;;;;;;14.55;10.65;;;;;;;12.07;69.42;101429.44;5074197;28;20358;-63
2023/04/19 02:30:00;;;;;;;16.13;9.85;;;;;;;11.95;68.80;101433.81;5074010;28;20040;-62
2023/04/19 02:32:30;;;;;;;14.05;10.55;;;;;;;11.81;69.70;101428.28;5055785;28;20052;-63
2023/04/19 02:34:58;;;;;;;13.75;10.13;;;;;;;11.65;70.22;101429.69;5074649;28;20583;-62
2023/04/19 02:37:25;;;;;;;14.82;10.55;;;;;;;11.70;70.08;101431.56;5074075;28;20060;-63
2023/04/19 02:39:56;;;;;;;14.82;10.07;;;;;;;11.65;70.59;101429.69;5056982;28;20058;-62
2023/04/19 02:42:23;;;;;;;14.77;10.57;;;;;;;11.68;70.21;101429.06;5072354;28;20067;-63
2023/04/19 02:44:53;;;;;;;13.75;10.45;;;;;;;11.74;69.85;101430.63;5075836;28;20055;-63
2023/04/19 02:47:23;;;;;;;17.52;10.82;;;;;;;11.54;70.61;101417.16;5073071;28;20060;-63
2023/04/19 02:49:51;;;;;;;15.40;10.80;;;;;;;11.56;70.35;101425.16;5061891;28;20041;-63
2023/04/19 02:52:19;;;;;;;18.77;10.98;;;;;;;11.36;71.16;101426.31;5071967;28;20075;-63
2023/04/19 02:54:47;;;;;;;13.85;10.65;;;;;;;11.68;70.81;101433.78;5072364;28;20487;-63
2023/04/19 02:57:14;;;;;;;12.68;10.05;;;;;;;11.64;70.26;101428.06;5069198;28;20045;-63
2023/04/19 02:59:43;;;;;;;14.15;10.30;;;;;;;11.61;70.40;101430.56;5074432;28;20056;-63
2023/04/19 03:02:10;;;;;;;14.63;10.85;;;;;;;11.69;70.04;101435.41;5055409;28;20045;-63
2023/04/19 03:04:37;;;;;;;14.23;10.27;;;;;;;11.79;69.73;101433.28;5074258;28;20059;-63
2023/04/19 03:07:05;;;;;;;14.90;11.27;;;;;;;11.56;70.82;101433.44;5072908;28;20055;-61
2023/04/19 03:09:33;;;;;;;13.60;10.55;;;;;;;11.57;70.59;101435.06;5073761;28;20633;-63
2023/04/19 03:12:00;;;;;;;14.90;11.18;;;;;;;11.53;70.66;101434.00;5073868;28;20048;-63
2023/04/19 03:14:28;;;;;;;15.13;10.90;;;;;;;11.49;70.82;101433.00;5056900;28;20068;-62
2023/04/19 03:16:55;;;;;;;14.73;11.50;;;;;;;11.41;71.35;101428.97;5056354;28;20056;-63
2023/04/19 03:19:23;;;;;;;16.23;11.48;;;;;;;11.33;71.40;101430.47;5075317;28;20051;-62
2023/04/19 03:21:51;;;;;;;16.63;11.90;;;;;;;11.37;71.55;101432.66;5072186;28;20469;-62
2023/04/19 03:24:30;;;;;;;16.37;11.07;;;;;;;11.34;71.38;101426.63;5057791;28;20059;-63
2023/04/19 03:27:05;;;;;;;15.15;11.85;;;;;;;11.41;71.64;101423.47;5071508;28;20060;-63
2023/04/19 03:29:33;;;;;;;17.38;11.18;;;;;;;11.33;71.49;101424.97;5075184;28;20150;-62
2023/04/19 03:32:07;;;;;;;16.02;11.30;;;;;;;11.54;70.86;101424.63;5072052;28;20044;-62
2023/04/19 03:34:35;;;;;;;18.92;11.30;;;;;;;11.61;70.52;101427.81;5075079;28;20480;-62
2023/04/19 03:37:02;;;;;;;17.55;12.27;;;;;;;11.34;71.19;101440.41;5073544;28;20063;-62
2023/04/19 03:39:31;;;;;;;15.43;11.75;;;;;;;11.38;71.43;101430.38;5073847;28;20071;-62
2023/04/19 03:42:02;;;;;;;16.63;11.45;;;;;;;11.20;71.90;101436.78;5071819;28;20056;-63
2023/04/19 03:44:53;;;;;;;16.83;11.95;;;;;;;11.11;72.66;101433.06;5069039;28;20052;-63
2023/04/19 03:47:21;;;;;;;16.17;12.27;;;;;;;11.18;72.72;101430.72;5071931;28;20060;-62
2023/04/19 03:49:50;;;;;;;19.40;12.23;;;;;;;11.10;72.63;101425.91;5072548;28;20057;-63
2023/04/19 03:52:18;;;;;;;15.00;11.77;;;;;;;11.19;72.74;101434.31;5072159;28;20510;-63
2023/04/19 03:54:45;;;;;;;16.23;12.07;;;;;;;10.99;73.25;101429.94;5072545;28;20052;-63
2023/04/19 03:57:32;;;;;;;15.88;11.95;;;;;;;11.18;72.71;101432.66;5071868;28;20148;-63
2023/04/19 04:00:08;;;;;;;16.50;11.77;;;;;;;11.12;72.75;101431.91;5057421;28;20139;-63
2023/04/19 04:02:55;;;;;;;18.05;12.95;;;;;;;11.11;73.03;101423.94;5070694;28;20068;-64
2023/04/19 04:05:26;;;;;;;17.00;12.02;;;;;;;11.01;73.50;101430.47;5054964;28;20064;-64
2023/04/19 04:07:55;;;;;;;19.25;13.25;;;;;;;11.03;73.74;101433.75;5054058;28;20048;-62
2023/04/19 04:10:22;;;;;;;17.23;12.80;;;;;;;11.19;73.26;101426.03;5054520;28;20049;-62
2023/04/19 04:12:50;;;;;;;17.17;12.50;;;;;;;11.05;73.46;101428.72;5074322;28;20062;-63
2023/04/19 04:15:24;;;;;;;18.40;13.15;;;;;;;10.94;73.86;101420.91;5072115;28;20060;-63
2023/04/19 04:17:53;;;;;;;21.30;14.77;;;;;;;10.96;74.06;101436.06;5071610;28;20053;-63
2023/04/19 04:20:20;;;;;;;19.00;14.02;;;;;;;10.97;74.09;101423.06;5071388;28;20107;-62
2023/04/19 04:22:51;;;;;;;18.27;13.50;;;;;;;10.87;74.30;101435.06;5054032;28;20052;-63
2023/04/19 04:25:20;;;;;;;20.73;13.52;;;;;;;10.99;74.17;101427.19;5054368;28;20079;-63
2023/04/19 04:27:51;;;;;;;16.55;13.05;;;;;;;10.97;73.95;101428.59;5038604;28;20072;-63
2023/04/19 04:30:20;;;;;;;19.88;13.50;;;;;;;10.85;74.37;101418.03;5070390;28;20048;-63
2023/04/19 04:32:50;;;;;;;17.83;13.82;;;;;;;10.97;74.45;101423.06;5070360;28;20091;-64
2023/04/19 04:35:17;;;;;;;18.63;13.60;;;;;;;10.91;74.09;101427.84;5055301;28;20103;-63
2023/04/19 04:37:52;;;;;;;18.70;13.32;;;;;;;10.72;75.10;101429.75;5071421;28;20428;-63
2023/04/19 04:40:20;;;;;;;17.70;13.80;;;;;;;10.88;74.66;101427.63;5053397;28;20049;-63
2023/04/19 04:42:48;;;;;;;21.27;14.00;;;;;;;11.06;73.79;101446.09;5072952;28;20044;-63
2023/04/19 04:45:17;;;;;;;22.13;14.52;;;;;;;11.15;73.12;101436.03;5055925;28;20056;-63
2023/04/19 04:47:45;;;;;;;19.70;14.00;;;;;;;11.00;73.52;101439.81;5071874;28;20053;-63
2023/04/19 04:50:13;;;;;;;18.40;14.30;;;;;;;11.03;74.08;101438.44;5072464;28;20052;-63
2023/04/19 04:52:40;;;;;;;19.65;14.60;;;;;;;11.00;74.16;101442.59;5071250;28;20063;-63
2023/04/19 04:55:23;;;;;;;17.92;13.52;;;;;;;10.88;74.59;101441.41;5068805;28;20548;-64
2023/04/19 04:57:50;;;;;;;23.38;14.32;;;;;;;11.02;74.01;101442.28;5072164;28;20372;-63
2023/04/19 05:00:27;;;;;;;19.25;14.32;;;;;;;10.83;74.33;101439.53;5070140;28;20049;-64
2023/04/19 05:03:13;;;;;;;19.17;14.32;;;;;;;10.76;75.14;101438.25;5075152;28;20103;-63
2023/04/19 05:05:46;;;;;;;19.67;14.82;;;;;;;10.83;74.62;101442.28;5074983;28;20056;-62
2023/04/19 05:08:13;;;;;;;18.45;14.32;;;;;;;10.94;74.19;101443.78;5059557;28;20049;-62
2023/04/19 05:10:41;;;;;;;21.95;14.70;;;;;;;11.04;74.15;101440.88;5057895;28;20531;-63
2023/04/19 05:13:08;;;;;;;19.35;13.98;;;;;;;10.92;73.97;101443.28;5059289;28;20056;-62
2023/04/19 05:15:36;;;;;;;21.52;14.50;;;;;;;10.80;74.98;101437.38;5075268;28;20143;-62
2023/04/19 05:18:04;;;;;;;19.27;14.05;;;;;;;10.76;75.06;101439.09;5058980;28;20059;-63
2023/04/19 05:20:35;;;;;;;20.52;14.40;;;;;;;10.91;74.35;101455.41;5057760;28;20500;-65
2023/04/19 05:23:10;;;;;;;21.02;15.50;;;;;;;10.95;74.81;101456.44;5061137;28;20052;-62
2023/04/19 05:25:38;;;;;;;22.52;15.27;;;;;;;10.88;74.75;101446.94;5074271;28;20051;-63
2023/04/19 05:28:05;;;;;;;21.50;15.00;;;;;;;10.85;74.80;101453.00;5077023;28;20059;-62
2023/04/19 05:30:42;;;;;;;24.13;15.55;;;;;;;10.82;74.68;101456.38;5074537;28;20518;-62
2023/04/19 05:33:10;;;;;;;21.23;14.77;;;;;;;10.76;75.18;101455.63;5059592;28;20044;-63
2023/04/19 05:35:38;;;;;;;20.35;15.30;;;;;;;10.61;75.91;101457.75;5073991;28;20048;-63
2023/04/19 05:38:05;;;;;;;22.35;14.93;;;;;;;10.73;75.69;101452.63;5058627;28;20067;-62
2023/04/19 05:40:34;;;;;;;20.50;15.10;;;;;;;10.62;75.64;101449.19;5058307;28;20059;-63
2023/04/19 05:43:01;;;;;;;23.60;15.75;;;;;;;10.60;76.20;101462.44;5058547;28;20411;-65
2023/04/19 05:45:29;;;;;;;19.52;14.90;;;;;;;10.62;76.47;101459.38;5074338;28;20100;-63
2023/04/19 05:47:56;;;;;;;22.88;15.13;;;;;;;10.85;76.04;101464.03;5076032;28;20048;-63
2023/04/19 05:50:43;;;;;;;19.85;14.43;;;;;;;10.92;74.73;101467.25;5074972;28;20044;-61
2023/04/19 05:53:29;;;;;;;24.92;14.88;;;;;;;10.69;75.12;101468.13;5075978;28;20056;-63
2023/04/19 05:55:57;;;;;;;21.98;15.23;;;;;;;10.64;75.76;101468.19;5074266;28;20044;-64
2023/04/19 05:58:25;;;;;;;19.95;15.00;;;;;;;10.64;76.08;101473.69;5074830;28;20774;-62
2023/04/19 06:00:52;;;;;;;20.48;14.93;;;;;;;10.82;75.89;101479.25;5056900;28;20059;-63
2023/04/19 06:03:21;;;;;;;23.63;15.63;;;;;;;10.85;75.41;101473.13;5089892;28;20530;-62
2023/04/19 06:05:50;;;;;;;21.67;15.30;;;;;;;11.11;74.27;101479.91;5088536;28;20294;-62
2023/04/19 06:08:17;;;;;;;20.23;15.95;;;;;;;11.03;74.12;101477.03;5075148;28;20052;-63
2023/04/19 06:10:46;;;;;;;22.42;15.02;;;;;;;10.97;74.47;101480.94;5074846;28;20049;-63
2023/04/19 06:13:24;;;;;;;25.15;16.48;;;;;;;10.90;74.92;101484.09;5076104;28;20053;-65
2023/04/19 06:15:52;;;;;;;23.50;14.75;;;;;;;11.01;74.33;101484.75;5074937;28;20052;-64
2023/04/19 06:18:19;;;;;;;24.88;15.25;;;;;;;10.97;74.63;101483.72;5081654;28;20075;-64
2023/04/19 06:20:47;;;;;;;20.58;15.65;;;;;;;10.97;74.44;101483.72;5072793;28;20057;-64
2023/04/19 06:23:14;;;;;;;23.20;15.02;;;;;;;11.02;74.36;101489.16;5075469;28;20049;-64
2023/04/19 06:25:41;;;;;;;20.75;14.80;;;;;;;11.18;74.17;101490.56;5078890;28;20157;-64
2023/04/19 06:28:09;;;;;;;26.60;16.15;;;;;;;11.21;73.75;101490.78;5074351;28;20063;-64
2023/04/19 06:30:37;;;;;;;22.98;16.17;;;;;;;11.31;73.45;101489.84;5082333;28;20491;-65
2023/04/19 06:33:04;;;;;;;22.95;15.30;;;;;;;11.29;73.28;101492.91;5076320;28;20052;-65
2023/04/19 06:35:32;;;;;;;23.58;16.45;;;;;;;11.25;73.32;101497.34;5074698;28;20059;-65
2023/04/19 06:38:00;;;;;;;22.38;15.75;;;;;;;11.18;73.48;101496.91;5074371;28;20057;-65
2023/04/19 06:40:28;;;;;;;22.63;15.95;;;;;;;11.04;74.26;101498.78;5072485;28;20056;-65
2023/04/19 06:42:55;;;;;;;24.17;15.55;;;;;;;11.16;73.70;101495.56;5036392;28;20139;-65
2023/04/19 06:45:22;;;;;;;22.95;16.50;;;;;;;11.18;73.96;101502.44;5062627;28;20048;-66
2023/04/19 06:47:50;;;;;;;21.80;15.43;;;;;;;11.00;74.14;101500.47;5069113;28;20048;-64
2023/04/19 06:50:17;;;;;;;23.50;16.80;;;;;;;10.97;74.34;101508.50;5064744;28;20080;-64
2023/04/19 06:52:44;;;;;;;22.10;16.48;;;;;;;10.91;74.73;101506.97;5068265;28;20522;-64
2023/04/19 06:55:12;;;;;;;24.95;16.67;;;;;;;10.96;74.89;101501.38;5060192;28;20506;-64
2023/04/19 06:57:39;;;;;;;21.40;16.33;;;;;;;11.01;74.68;101501.31;5073266;28;20070;-65
2023/04/19 07:00:07;;;;;;;28.13;16.85;;;;;;;10.94;74.87;101501.69;5063660;28;20056;-64
2023/04/19 07:02:34;;;;;;;46.90;19.45;;;;;;;11.00;75.27;101505.19;5066575;28;20049;-63
2023/04/19 07:05:02;;;;;;;32.78;17.10;;;;;;;11.32;74.40;101505.25;5059041;28;20055;-64
2023/04/19 07:07:32;;;;;;;25.02;17.42;;;;;;;11.28;73.62;101507.78;5063263;28;20055;-63
2023/04/19 07:09:59;;;;;;;33.40;17.98;;;;;;;11.28;74.00;101506.97;5061653;28;20056;-63
2023/04/19 07:12:26;;;;;;;24.73;16.48;;;;;;;11.10;74.25;101503.09;5050777;28;20044;-63
2023/04/19 07:14:56;;;;;;;25.17;17.42;;;;;;;11.10;74.66;101499.53;5067545;28;20056;-64
2023/04/19 07:17:23;;;;;;;24.50;16.65;;;;;;;11.37;74.41;101501.59;5066352;28;20395;-64
2023/04/19 07:19:50;;;;;;;22.88;16.20;;;;;;;11.64;73.53;101508.09;5048049;28;20064;-65
2023/04/19 07:22:17;;;;;;;25.08;16.98;;;;;;;11.93;72.29;101497.63;5068151;28;20136;-63
2023/04/19 07:24:45;;;;;;;21.30;15.88;;;;;;;12.02;71.81;101489.47;5062942;28;20053;-63
2023/04/19 07:27:13;;;;;;;22.00;15.90;;;;;;;12.01;71.17;101491.41;5075219;28;20496;-63
2023/04/19 07:29:40;;;;;;;31.77;18.20;;;;;;;12.01;71.37;101498.88;5065640;28;20052;-64
2023/04/19 07:32:08;;;;;;;26.45;17.20;;;;;;;12.23;70.87;101504.53;5064419;28;20056;-63
2023/04/19 07:34:36;;;;;;;35.83;19.02;;;;;;;12.15;71.01;101499.72;5069116;28;20052;-64
2023/04/19 07:37:04;;;;;;;34.65;17.98;;;;;;;12.13;70.76;101505.53;5061119;28;20052;-64
2023/04/19 07:39:31;;;;;;;28.98;16.83;;;;;;;12.21;70.59;101504.84;5066416;28;20068;-63
2023/04/19 07:42:00;;;;;;;23.30;16.08;;;;;;;12.15;70.63;101511.56;5070506;28;20048;-63
2023/04/19 07:44:27;;;;;;;23.05;16.00;;;;;;;12.28;70.53;101505.25;5058982;28;20076;-64
2023/04/19 07:46:54;;;;;;;23.83;16.00;;;;;;;12.24;70.42;101509.75;5069175;28;20048;-63
2023/04/19 07:49:22;;;;;;;20.77;15.80;;;;;;;12.45;70.03;101508.22;5068455;28;20055;-64
2023/04/19 07:51:50;;;;;;;26.55;16.17;;;;;;;12.37;69.81;101519.19;5063414;28;20057;-65
2023/04/19 07:54:19;;;;;;;23.15;16.45;;;;;;;12.42;69.80;101508.03;5067502;28;20048;-64
2023/04/19 07:56:46;;;;;;;25.90;17.20;;;;;;;12.51;69.50;101497.91;5069333;28;20079;-64
2023/04/19 07:59:14;;;;;;;27.48;17.80;;;;;;;12.44;70.16;101503.03;5071013;28;20127;-64
2023/04/19 08:01:42;;;;;;;23.73;17.98;;;;;;;12.68;69.22;101497.25;5062925;28;20049;-63
2023/04/19 08:04:09;;;;;;;23.27;16.73;;;;;;;12.78;68.44;101497.06;5067984;28;20057;-63
2023/04/19 08:06:39;;;;;;;26.02;17.00;;;;;;;12.92;68.05;101498.66;5064457;28;20040;-62
2023/04/19 08:09:06;;;;;;;24.60;17.23;;;;;;;12.93;67.62;101502.25;5060014;28;20048;-63
2023/04/19 08:11:34;;;;;;;26.50;17.52;;;;;;;12.95;68.32;101500.84;5067822;28;20056;-63
2023/04/19 08:14:01;;;;;;;24.05;16.55;;;;;;;12.79;68.46;101505.06;5057737;28;20053;-64
2023/04/19 08:16:48;;;;;;;26.95;17.30;;;;;;;12.62;68.55;101510.41;5067398;28;20052;-64
2023/04/19 08:19:18;;;;;;;;;;;;;;;12.65;69.04;101498.72;5062015;28;20056;-64
2023/04/19 08:21:45;;;;;;;21.42;15.68;;;;;;;12.84;68.79;101495.81;5067697;28;20347;-64
2023/04/19 08:24:13;;;;;;;23.60;16.80;;;;;;;13.15;67.75;101496.81;5064562;28;20053;-64
2023/04/19 08:26:41;;;;;;;23.23;15.43;;;;;;;13.04;67.18;101493.44;5071854;28;20435;-65
2023/04/19 08:29:08;;;;;;;21.85;15.93;;;;;;;12.96;67.77;101498.88;5065696;28;20052;-64
2023/04/19 08:31:36;;;;;;;22.83;15.90;;;;;;;13.06;67.67;101498.66;5065469;28;20052;-63
2023/04/19 08:34:03;;;;;;;24.13;16.17;;;;;;;12.94;67.87;101495.59;5067376;28;20056;-65
2023/04/19 08:36:31;;;;;;;21.80;15.13;;;;;;;13.21;66.96;101485.34;5070475;28;20063;-65
2023/04/19 08:39:11;;;;;;;24.08;15.73;;;;;;;13.43;66.59;101484.53;5063772;28;20049;-65
2023/04/19 08:41:56;;;;;;;25.90;16.40;;;;;;;13.40;66.33;101490.69;5064883;28;20174;-64
2023/04/19 08:44:38;;;;;;;20.00;14.70;;;;;;;13.24;66.40;101490.25;5068313;28;20059;-64
2023/04/19 08:47:27;;;;;;;22.27;15.48;;;;;;;13.33;66.08;101490.31;5071317;28;20048;-64
2023/04/19 08:50:01;;;;;;;25.10;16.33;;;;;;;13.55;66.78;101493.91;5069703;28;20539;-64
2023/04/19 08:52:36;;;;;;;21.77;14.75;;;;;;;13.71;65.24;101487.97;5062136;28;20044;-65
2023/04/19 08:55:18;;;;;;;25.33;15.43;;;;;;;13.74;65.07;101485.38;5064558;28;20052;-64
2023/04/19 08:57:45;;;;;;;23.55;15.50;;;;;;;13.83;64.96;101483.50;5071650;28;20049;-65
2023/04/19 09:00:14;;;;;;;22.27;14.98;;;;;;;13.94;64.26;101489.59;5066862;28;20056;-65
2023/04/19 09:02:46;;;;;;;20.13;15.00;;;;;;;13.96;64.11;101484.56;5068433;28;20061;-67
2023/04/19 09:05:16;;;;;;;22.27;16.60;;;;;;;13.68;64.90;101483.91;5070555;28;20052;-65
2023/04/19 09:07:45;;;;;;;;;;;;;;;13.69;65.17;101493.00;5069906;28;20233;-64
2023/04/19 09:10:18;;;;;;;25.20;15.23;;;;;;;13.65;65.31;101494.78;5070630;28;19924;-64
2023/04/19 09:13:00;;;;;;;23.58;15.50;;;;;;;13.65;65.44;101494.78;5073845;28;20075;-64
2023/04/19 09:15:40;;;;;;;20.27;15.32;;;;;;;13.70;64.95;101489.13;5071899;28;20742;-64
2023/04/19 09:18:08;;;;;;;23.10;15.63;;;;;;;13.49;65.62;101489.59;5068516;28;20053;-63
2023/04/19 09:20:41;;;;;;;29.05;16.90;;;;;;;13.61;65.69;101489.06;5059545;28;20508;-65
2023/04/19 09:23:13;;;;;;;29.67;16.63;;;;;;;13.71;65.31;101488.81;5072217;28;20041;-64
2023/04/19 09:25:56;;;;;;;23.17;15.85;;;;;;;13.79;64.85;101498.31;5066831;28;20056;-65
2023/04/19 09:28:27;;;;;;;34.20;16.95;;;;;;;13.77;64.76;101490.31;5068007;28;20048;-63
2023/04/19 09:30:55;;;;;;;37.78;16.50;;;;;;;13.94;64.58;101484.88;5068692;28;20051;-64
2023/04/19 09:33:43;;;;;;;21.80;14.85;;;;;;;13.86;64.46;101480.09;5064805;28;20053;-64
2023/04/19 09:36:11;;;;;;;20.83;15.27;;;;;;;13.82;64.18;101481.06;5069330;28;20044;-65
2023/04/19 09:38:48;;;;;;;17.73;13.90;;;;;;;13.86;64.42;101479.28;5068550;28;20055;-65
2023/04/19 09:41:19;;;;;;;21.30;14.20;;;;;;;13.90;64.32;101464.47;5071878;28;20071;-65
2023/04/19 09:43:47;;;;;;;19.73;13.80;;;;;;;14.14;63.83;101470.47;5067598;28;20053;-65
2023/04/19 09:46:35;;;;;;;17.92;13.52;;;;;;;14.44;63.22;101457.75;5079710;28;20048;-63
2023/04/19 09:49:19;;;;;;;18.02;13.60;;;;;;;14.84;62.26;101464.03;5059489;28;20048;-63
2023/04/19 09:52:06;;;;;;;18.90;12.77;;;;;;;14.96;61.20;101461.47;5070433;28;20056;-64
2023/04/19 09:54:33;;;;;;;19.75;13.40;;;;;;;15.20;60.67;101453.47;5075803;28;20040;-64
2023/04/19 09:57:01;;;;;;;30.77;14.75;;;;;;;15.18;60.41;101451.03;5073617;28;20052;-65
2023/04/19 09:59:29;;;;;;;24.02;13.68;;;;;;;15.05;60.31;101452.00;5065696;28;20051;-63
2023/04/19 10:01:57;;;;;;;18.20;13.65;;;;;;;14.93;60.47;101448.22;5072300;28;20044;-64
2023/04/19 10:04:25;;;;;;;23.23;15.82;;;;;;;14.96;60.76;101440.06;5067171;28;20059;-64
2023/04/19 10:07:13;;;;;;;20.25;13.43;;;;;;;14.90;60.85;101444.16;5069703;28;20570;-64
2023/04/19 10:09:45;;;;;;;27.30;13.63;;;;;;;15.05;60.47;101442.84;5066942;28;20059;-65
2023/04/19 10:12:16;;;;;;;20.65;12.77;;;;;;;15.22;60.18;101438.13;5070900;28;20044;-64
2023/04/19 10:15:05;;;;;;;18.33;13.45;;;;;;;15.30;59.18;101430.94;5064744;28;20048;-65
2023/04/19 10:17:33;;;;;;;18.10;13.53;;;;;;;15.34;59.80;101431.94;5059970;28;20708;-64
2023/04/19 10:20:06;;;;;;;16.75;12.35;;;;;;;15.18;58.88;101434.38;5060610;28;20314;-64
2023/04/19 10:22:36;;;;;;;16.02;12.00;;;;;;;15.16;59.02;101430.28;5062056;28;20128;-66
2023/04/19 10:25:14;;;;;;;15.95;11.93;;;;;;;15.26;58.85;101433.56;5070091;28;20049;-66
2023/04/19 10:27:47;;;;;;;15.05;11.48;;;;;;;15.51;57.89;101426.38;5071508;28;20044;-65
2023/04/19 10:30:20;;;;;;;16.23;10.98;;;;;;;15.68;57.16;101421.63;5069102;28;20056;-66
2023/04/19 10:33:06;;;;;;;15.55;11.48;;;;;;;15.50;57.33;101438.63;5060362;28;20053;-66
2023/04/19 10:35:36;;;;;;;18.98;12.75;;;;;;;15.32;58.51;101426.72;5075500;28;20036;-67
2023/04/19 10:38:11;;;;;;;18.92;12.50;;;;;;;15.38;58.44;101414.28;5062994;28;20048;-66
2023/04/19 10:40:51;;;;;;;20.80;12.98;;;;;;;15.42;58.91;101418.06;5067771;28;21544;-65
2023/04/19 10:43:19;;;;;;;17.15;12.85;;;;;;;15.46;59.15;101418.22;5071400;28;20044;-67
2023/04/19 10:45:50;;;;;;;18.17;12.50;;;;;;;15.44;58.53;101429.66;5066978;28;20052;-66
2023/04/19 10:48:32;;;;;;;18.30;13.30;;;;;;;15.45;58.81;101420.19;5047690;28;20061;-67
2023/04/19 10:51:14;;;;;;;18.67;12.15;;;;;;;15.38;58.81;101419.00;5065763;28;20048;-66
2023/04/19 10:53:46;;;;;;;23.05;12.73;;;;;;;15.39;58.64;101418.69;5069891;28;20040;-65
2023/04/19 10:56:20;;;;;;;23.15;13.02;;;;;;;15.34;58.64;101413.28;5068041;28;20530;-65
2023/04/19 10:59:00;;;;;;;21.38;11.82;;;;;;;15.45;58.57;101411.03;5070916;28;20064;-66
2023/04/19 11:01:44;;;;;;;15.63;11.70;;;;;;;15.55;57.98;101402.38;5063371;28;20052;-66
2023/04/19 11:04:22;;;;;;;29.65;12.40;;;;;;;15.75;57.44;101405.25;5072346;28;20048;-65
2023/04/19 11:06:54;;;;;;;26.63;14.15;;;;;;;15.92;56.94;101392.47;5064991;28;20040;-65
2023/04/19 11:09:28;;;;;;;26.33;13.00;;;;;;;16.03;56.78;101397.31;5065759;28;20070;-65
2023/04/19 11:12:15;;;;;;;30.15;12.43;;;;;;;16.20;56.10;101382.50;5068551;28;20059;-67
2023/04/19 11:15:01;;;;;;;32.05;12.20;;;;;;;16.24;55.73;101384.28;5058781;28;20041;-66
2023/04/19 11:17:30;;;;;;;15.60;10.95;;;;;;;16.18;56.08;101377.28;5068298;28;20041;-67
2023/04/19 11:20:06;;;;;;;15.67;11.03;;;;;;;15.97;56.26;101378.38;5064446;28;20068;-65
2023/04/19 11:22:41;;;;;;;15.50;11.30;;;;;;;15.97;56.09;101370.03;5062663;28;20052;-66
2023/04/19 11:25:09;;;;;;;21.83;11.93;;;;;;;16.01;55.86;101371.81;5064502;28;20048;-65